createdAt,value
2019-02-24T00:02:19.178Z,96421.97
2019-02-24T00:04:51.467Z,96418.66
2019-02-24T00:07:23.909Z,96424.36
2019-02-24T00:09:56.146Z,96421.90
2019-02-24T00:12:28.384Z,96419.02
2019-02-24T00:15:01.235Z,96420.14
2019-02-24T00:17:33.534Z,96412.24
2019-02-24T00:20:06.170Z,96423.12
2019-02-24T00:22:38.358Z,96424.13
2019-02-24T00:25:10.988Z,96425.16
2019-02-24T00:27:43.269Z,96424.04
2019-02-24T00:30:15.665Z,96434.17
2019-02-24T00:32:47.790Z,96424.94
2019-02-24T00:35:20.042Z,96435.09
2019-02-24T00:37:52.458Z,96429.53
2019-02-24T00:40:24.722Z,96428.52
2019-02-24T00:42:56.983Z,96419.26
2019-02-24T00:45:29.407Z,96422.77
2019-02-24T00:48:01.728Z,96422.32
2019-02-24T00:50:34.227Z,96418.94
2019-02-24T00:53:06.698Z,96423.14
2019-02-24T00:55:38.878Z,96423.02
2019-02-24T00:58:16.178Z,96427.95
2019-02-24T01:00:45.324Z,96431.24
2019-02-24T01:03:17.969Z,96428.38
2019-02-24T01:05:50.409Z,96425.72
2019-02-24T01:08:22.569Z,96422.11
2019-02-24T01:10:55.181Z,96428.52
2019-02-24T01:13:27.494Z,96423.86
2019-02-24T01:15:59.816Z,96424.74
2019-02-24T01:18:32.220Z,96429.23
2019-02-24T01:21:04.702Z,96425.27
2019-02-24T01:23:36.951Z,96426.03
2019-02-24T01:26:09.196Z,96426.27
2019-02-24T01:28:41.457Z,96431.78
2019-02-24T01:31:13.677Z,96432.58
2019-02-24T01:33:46.115Z,96433.92
2019-02-24T01:36:18.518Z,96434.22
2019-02-24T01:38:50.971Z,96428.31
2019-02-24T01:41:23.307Z,96435.56
2019-02-24T01:43:56.410Z,96428.13
2019-02-24T01:46:28.799Z,96426.50
2019-02-24T01:49:00.987Z,96423.81
2019-02-24T01:51:33.226Z,96426.89
2019-02-24T01:54:05.501Z,96420.27
2019-02-24T01:56:37.862Z,96424.67
2019-02-24T01:59:10.038Z,96417.97
2019-02-24T02:01:42.297Z,96416.13
2019-02-24T02:04:14.468Z,96414.89
2019-02-24T02:06:46.687Z,96410.56
2019-02-24T02:09:19.071Z,96409.04
2019-02-24T02:11:51.270Z,96406.12
2019-02-24T02:14:23.529Z,96400.17
2019-02-24T02:16:55.892Z,96399.98
2019-02-24T02:19:28.296Z,96392.27
2019-02-24T02:22:00.904Z,96388.48
2019-02-24T02:24:33.192Z,96395.70
2019-02-24T02:27:05.328Z,96393.81
2019-02-24T02:29:37.579Z,96392.55
2019-02-24T02:32:09.914Z,96390.89
2019-02-24T02:34:42.123Z,96390.64
2019-02-24T02:37:14.687Z,96386.06
2019-02-24T02:39:46.993Z,96385.97
2019-02-24T02:42:19.229Z,96385.67
2019-02-24T02:44:51.575Z,96391.13
2019-02-24T02:47:24.104Z,96395.46
2019-02-24T02:49:56.376Z,96393.76
2019-02-24T02:52:28.521Z,96401.34
2019-02-24T02:55:00.780Z,96403.85
2019-02-24T02:57:32.959Z,96402.48
2019-02-24T03:00:07.466Z,96400.80
2019-02-24T03:02:39.756Z,96410.80
2019-02-24T03:05:12.347Z,96405.03
2019-02-24T03:07:53.074Z,96405.77
2019-02-24T03:10:36.734Z,96401.66
2019-02-24T03:13:09.840Z,96404.13
2019-02-24T03:15:43.120Z,96405.31
2019-02-24T03:18:16.504Z,96412.39
2019-02-24T03:20:49.531Z,96405.43
2019-02-24T03:23:23.521Z,96400.92
2019-02-24T03:25:57.492Z,96407.98
2019-02-24T03:28:31.900Z,96410.52
2019-02-24T03:31:04.996Z,96411.91
2019-02-24T03:33:39.727Z,96402.56
2019-02-24T03:36:12.942Z,96404.55
2019-02-24T03:38:46.164Z,96408.81
2019-02-24T03:41:19.233Z,96405.30
2019-02-24T03:43:52.290Z,96402.12
2019-02-24T03:46:25.831Z,96400.52
2019-02-24T03:48:58.811Z,96394.27
2019-02-24T03:51:32.185Z,96392.17
2019-02-24T03:54:05.285Z,96395.30
2019-02-24T03:56:38.245Z,96393.66
2019-02-24T03:59:15.160Z,96393.11
2019-02-24T04:01:46.536Z,96394.99
2019-02-24T04:04:19.757Z,96395.55
2019-02-24T04:06:53.045Z,96399.36
2019-02-24T04:09:26.176Z,96400.73
2019-02-24T04:11:59.364Z,96396.37
2019-02-24T04:14:32.778Z,96398.42
2019-02-24T04:17:06.932Z,96396.77
2019-02-24T04:19:40.011Z,96396.92
2019-02-24T04:22:13.110Z,96396.62
2019-02-24T04:24:46.601Z,96388.68
2019-02-24T04:27:19.641Z,96388.00
2019-02-24T04:29:53.011Z,96390.83
2019-02-24T04:32:26.247Z,96386.70
2019-02-24T04:35:00.274Z,96390.71
2019-02-24T04:37:33.579Z,96387.97
2019-02-24T04:40:06.971Z,96394.17
2019-02-24T04:42:40.810Z,96389.08
2019-02-24T04:45:13.854Z,96385.34
2019-02-24T04:47:47.406Z,96385.19
2019-02-24T04:50:20.723Z,96385.78
2019-02-24T04:52:54.438Z,96386.26
2019-02-24T04:55:27.849Z,96381.56
2019-02-24T04:58:01.272Z,96384.94
2019-02-24T05:00:34.261Z,96385.66
2019-02-24T05:03:07.248Z,96398.02
2019-02-24T05:05:40.453Z,96393.44
2019-02-24T05:08:13.580Z,96401.91
2019-02-24T05:10:48.506Z,96404.86
2019-02-24T05:13:22.635Z,96409.42
2019-02-24T05:15:55.777Z,96411.04
2019-02-24T05:18:28.956Z,96409.45
2019-02-24T05:21:02.327Z,96409.27
2019-02-24T05:23:35.403Z,96419.59
2019-02-24T05:26:08.958Z,96422.94
2019-02-24T05:28:42.375Z,96415.83
2019-02-24T05:31:15.975Z,96423.98
2019-02-24T05:33:49.622Z,96425.17
2019-02-24T05:36:22.902Z,96428.63
2019-02-24T05:38:56.429Z,96423.16
2019-02-24T05:41:29.666Z,96431.50
2019-02-24T05:44:02.797Z,96427.39
2019-02-24T05:46:35.988Z,96434.69
2019-02-24T05:49:09.951Z,96435.25
2019-02-24T05:51:43.448Z,96430.89
2019-02-24T05:54:16.877Z,96431.22
2019-02-24T05:56:50.404Z,96429.98
2019-02-24T05:59:23.757Z,96431.91
2019-02-24T06:01:56.982Z,96440.31
2019-02-24T06:04:30.791Z,96433.87
2019-02-24T06:07:04.700Z,96438.92
2019-02-24T06:09:38.120Z,96436.63
2019-02-24T06:12:12.060Z,96436.52
2019-02-24T06:14:45.543Z,96437.52
2019-02-24T06:17:19.513Z,96437.38
2019-02-24T06:19:52.784Z,96440.63
2019-02-24T06:22:26.008Z,96437.78
2019-02-24T06:24:59.925Z,96437.11
2019-02-24T06:27:33.254Z,96439.45
2019-02-24T06:30:07.085Z,96438.63
2019-02-24T06:32:40.465Z,96446.31
2019-02-24T06:35:14.700Z,96439.33
2019-02-24T06:37:48.497Z,96439.48
2019-02-24T06:40:22.381Z,96449.17
2019-02-24T06:42:56.003Z,96446.95
2019-02-24T06:45:29.595Z,96443.31
2019-02-24T06:48:02.980Z,96451.28
2019-02-24T06:50:55.495Z,96450.52
2019-02-24T06:53:29.253Z,96452.83
2019-02-24T06:56:02.890Z,96450.56
2019-02-24T06:58:36.212Z,96448.83
2019-02-24T07:01:09.590Z,96455.19
2019-02-24T07:03:45.071Z,96458.67
2019-02-24T07:06:18.768Z,96457.61
2019-02-24T07:08:52.176Z,96459.09
2019-02-24T07:11:25.578Z,96452.73
2019-02-24T07:13:59.184Z,96458.95
2019-02-24T07:16:32.033Z,96451.23
2019-02-24T07:19:05.601Z,96457.73
2019-02-24T07:21:39.298Z,96454.09
2019-02-24T07:24:15.833Z,96454.78
2019-02-24T07:26:49.644Z,96451.64
2019-02-24T07:29:23.052Z,96460.20
2019-02-24T07:31:56.781Z,96453.52
2019-02-24T07:34:29.840Z,96451.86
2019-02-24T07:37:12.563Z,96452.90
2019-02-24T07:39:39.081Z,96446.97
2019-02-24T07:42:12.895Z,96446.71
2019-02-24T07:44:47.476Z,96445.94
2019-02-24T07:47:23.327Z,96453.16
2019-02-24T07:49:59.919Z,96449.42
2019-02-24T07:52:33.633Z,96444.27
2019-02-24T07:55:07.371Z,96448.73
2019-02-24T07:57:40.938Z,96446.83
2019-02-24T08:00:14.649Z,96447.44
2019-02-24T08:02:48.299Z,96441.50
2019-02-24T08:05:21.691Z,96447.36
2019-02-24T08:07:55.938Z,96458.56
2019-02-24T08:10:29.882Z,96452.98
2019-02-24T08:13:03.535Z,96448.22
2019-02-24T08:15:36.782Z,96443.00
2019-02-24T08:18:10.870Z,96438.35
2019-02-24T08:20:44.229Z,96439.74
2019-02-24T08:23:17.949Z,96438.17
2019-02-24T08:25:51.437Z,96441.36
2019-02-24T08:28:25.032Z,96445.52
2019-02-24T08:30:58.876Z,96436.09
2019-02-24T08:33:32.616Z,96422.55
2019-02-24T08:36:06.385Z,96424.64
2019-02-24T08:38:40.489Z,96429.34
2019-02-24T08:41:14.077Z,96429.38
2019-02-24T08:43:47.163Z,96426.85
2019-02-24T08:46:20.288Z,96429.81
2019-02-24T08:48:53.973Z,96434.00
2019-02-24T08:51:27.589Z,96428.47
2019-02-24T08:54:00.970Z,96427.76
2019-02-24T08:56:34.398Z,96425.19
2019-02-24T08:59:09.385Z,96420.77
2019-02-24T09:01:42.449Z,96428.52
2019-02-24T09:04:15.890Z,96424.16
2019-02-24T09:06:52.127Z,96425.71
2019-02-24T09:09:25.756Z,96409.48
2019-02-24T09:11:58.955Z,96418.89
2019-02-24T09:14:32.827Z,96411.69
2019-02-24T09:17:06.623Z,96407.70
2019-02-24T09:19:39.881Z,96405.11
2019-02-24T09:22:13.548Z,96409.75
2019-02-24T09:24:47.582Z,96417.19
2019-02-24T09:27:21.386Z,96403.52
2019-02-24T09:29:54.863Z,96408.56
2019-02-24T09:32:32.894Z,96408.84
2019-02-24T09:35:07.728Z,96414.77
2019-02-24T09:37:44.918Z,96400.18
2019-02-24T09:40:18.559Z,96401.19
2019-02-24T09:42:52.167Z,96406.39
2019-02-24T09:45:25.856Z,96401.90
2019-02-24T09:47:59.506Z,96394.86
2019-02-24T09:50:33.717Z,96387.04
2019-02-24T09:53:07.034Z,96389.91
2019-02-24T09:55:40.807Z,96377.54
2019-02-24T09:58:15.645Z,96378.48
2019-02-24T10:00:49.111Z,96373.98
2019-02-24T10:03:28.651Z,96369.65
2019-02-24T10:06:02.069Z,96361.91
2019-02-24T10:08:36.163Z,96360.88
2019-02-24T10:11:09.730Z,96362.72
2019-02-24T10:13:43.666Z,96351.42
2019-02-24T10:19:27.092Z,96336.17
2019-02-24T10:22:02.370Z,96342.46
2019-02-24T10:24:36.047Z,96332.58
2019-02-24T10:27:09.731Z,96339.09
2019-02-24T10:29:43.785Z,96328.83
2019-02-24T10:32:17.811Z,96328.52
2019-02-24T10:34:51.494Z,96325.73
2019-02-24T10:37:25.487Z,96330.76
2019-02-24T10:39:59.497Z,96323.75
2019-02-24T10:42:32.911Z,96319.77
2019-02-24T10:45:09.210Z,96322.95
2019-02-24T10:47:43.951Z,96311.63
2019-02-24T10:50:17.939Z,96310.88
2019-02-24T10:52:51.369Z,96307.92
2019-02-24T10:55:28.800Z,96302.63
2019-02-24T10:58:02.474Z,96304.63
2019-02-24T11:00:36.597Z,96307.80
2019-02-24T11:03:10.569Z,96302.03
2019-02-24T11:05:44.285Z,96293.86
2019-02-24T11:08:17.577Z,96298.41
2019-02-24T11:10:54.505Z,96293.55
2019-02-24T11:13:27.596Z,96288.86
2019-02-24T11:16:00.708Z,96287.48
2019-02-24T11:18:33.892Z,96284.03
2019-02-24T11:21:07.581Z,96287.70
2019-02-24T11:23:40.908Z,96290.53
2019-02-24T11:26:14.120Z,96285.21
2019-02-24T11:28:47.223Z,96282.13
2019-02-24T11:31:20.562Z,96277.14
2019-02-24T11:33:53.762Z,96270.09
2019-02-24T11:36:27.013Z,96270.84
2019-02-24T11:39:00.239Z,96265.50
2019-02-24T11:41:34.185Z,96259.22
2019-02-24T11:44:07.872Z,96249.88
2019-02-24T11:46:40.859Z,96254.17
2019-02-24T11:49:14.340Z,96254.52
2019-02-24T11:51:47.656Z,96245.55
2019-02-24T11:54:20.859Z,96258.86
2019-02-24T11:56:53.744Z,96251.89
2019-02-24T11:59:27.188Z,96252.30
2019-02-24T12:02:01.062Z,96241.98
2019-02-24T12:04:34.194Z,96241.94
2019-02-24T12:07:07.388Z,96238.25
2019-02-24T12:09:40.673Z,96230.27
2019-02-24T12:12:14.536Z,96233.88
2019-02-24T12:14:48.009Z,96234.29
2019-02-24T12:17:24.557Z,96225.61
2019-02-24T12:19:58.011Z,96236.59
2019-02-24T12:22:31.775Z,96236.39
2019-02-24T12:25:05.387Z,96239.14
2019-02-24T12:27:38.884Z,96229.30
2019-02-24T12:30:12.908Z,96233.20
2019-02-24T12:32:46.091Z,96235.95
2019-02-24T12:35:19.224Z,96230.14
2019-02-24T12:37:52.413Z,96232.22
2019-02-24T12:40:25.782Z,96231.36
2019-02-24T12:43:05.727Z,96233.70
2019-02-24T12:45:40.885Z,96222.92
2019-02-24T12:48:14.059Z,96223.78
2019-02-24T12:50:47.758Z,96232.59
2019-02-24T12:53:21.055Z,96226.34
2019-02-24T12:55:54.260Z,96224.60
2019-02-24T12:58:27.187Z,96222.84
2019-02-24T13:01:02.684Z,96221.02
2019-02-24T13:03:36.400Z,96216.72
2019-02-24T13:06:09.737Z,96220.57
2019-02-24T13:08:43.080Z,96218.38
2019-02-24T13:11:16.043Z,96217.41
2019-02-24T13:13:49.424Z,96221.55
2019-02-24T13:16:26.134Z,96221.02
2019-02-24T13:18:59.480Z,96218.83
2019-02-24T13:21:32.889Z,96219.33
2019-02-24T13:24:06.340Z,96211.89
2019-02-24T13:26:39.707Z,96225.98
2019-02-24T13:29:12.866Z,96217.47
2019-02-24T13:31:46.469Z,96213.85
2019-02-24T13:34:21.398Z,96215.47
2019-02-24T13:36:55.076Z,96217.00
2019-02-24T13:39:28.352Z,96211.67
2019-02-24T13:42:02.997Z,96212.27
2019-02-24T13:44:36.714Z,96213.73
2019-02-24T13:47:13.231Z,96220.99
2019-02-24T13:49:46.520Z,96224.57
2019-02-24T13:52:20.135Z,96221.13
2019-02-24T13:54:53.538Z,96216.59
2019-02-24T13:57:32.669Z,96217.77
2019-02-24T14:00:09.619Z,96217.36
2019-02-24T14:02:46.733Z,96221.61
2019-02-24T14:05:21.355Z,96221.88
2019-02-24T14:07:56.590Z,96217.52
2019-02-24T14:10:31.453Z,96221.21
2019-02-24T14:13:08.865Z,96223.20
2019-02-24T14:15:42.869Z,96223.50
2019-02-24T14:18:16.446Z,96218.91
2019-02-24T14:20:49.913Z,96221.08
2019-02-24T14:23:23.900Z,96218.44
2019-02-24T14:25:58.286Z,96225.77
2019-02-24T14:28:32.842Z,96225.83
2019-02-24T14:31:07.073Z,96233.55
2019-02-24T14:33:40.391Z,96222.59
2019-02-24T14:36:14.799Z,96221.56
2019-02-24T14:38:48.508Z,96218.37
2019-02-24T14:41:23.898Z,96222.63
2019-02-24T14:44:03.000Z,96221.19
2019-02-24T14:46:36.444Z,96223.00
2019-02-24T14:49:10.653Z,96220.13
2019-02-24T14:51:43.633Z,96217.66
2019-02-24T14:54:16.708Z,96215.20
2019-02-24T14:56:50.483Z,96213.33
2019-02-24T14:59:23.904Z,96220.29
2019-02-24T15:01:57.126Z,96205.29
2019-02-24T15:04:30.979Z,96203.53
2019-02-24T15:07:08.076Z,96208.31
2019-02-24T15:09:42.185Z,96210.44
2019-02-24T15:12:16.734Z,96209.10
2019-02-24T15:14:49.433Z,96209.05
2019-02-24T15:17:22.109Z,96209.73
2019-02-24T15:19:55.490Z,96207.41
2019-02-24T15:22:28.100Z,96208.22
2019-02-24T15:25:00.696Z,96212.91
2019-02-24T15:27:34.409Z,96212.32
2019-02-24T15:30:17.002Z,96210.06
2019-02-24T15:32:52.003Z,96213.72
2019-02-24T15:35:25.163Z,96219.44
2019-02-24T15:38:09.634Z,96221.30
2019-02-24T15:40:42.460Z,96215.13
2019-02-24T15:43:15.677Z,96211.16
2019-02-24T15:45:55.555Z,96213.53
2019-02-24T15:48:28.536Z,96212.25
2019-02-24T15:51:15.193Z,96215.03
2019-02-24T15:53:51.304Z,96216.92
2019-02-24T15:56:26.211Z,96224.30
2019-02-24T15:59:00.877Z,96217.83
2019-02-24T16:01:34.776Z,96217.20
2019-02-24T16:04:08.387Z,96214.70
2019-02-24T16:06:42.484Z,96215.77
2019-02-24T16:09:19.712Z,96218.27
2019-02-24T16:11:54.948Z,96211.33
2019-02-24T16:14:31.104Z,96219.00
2019-02-24T16:17:08.892Z,96220.68
2019-02-24T16:19:45.320Z,96220.18
2019-02-24T16:22:21.478Z,96218.42
2019-02-24T16:24:56.241Z,96225.25
2019-02-24T16:27:30.349Z,96225.89
2019-02-24T16:30:06.802Z,96232.78
2019-02-24T16:32:46.360Z,96232.47
2019-02-24T16:35:22.745Z,96238.94
2019-02-24T16:38:03.675Z,96238.93
2019-02-24T16:40:41.938Z,96242.30
2019-02-24T16:43:18.848Z,96253.25
2019-02-24T16:45:56.955Z,96260.63
2019-02-24T16:48:33.428Z,96254.44
2019-02-24T16:51:10.995Z,96260.75
2019-02-24T16:53:48.737Z,96263.89
2019-02-24T16:56:23.809Z,96267.33
2019-02-24T16:58:57.845Z,96263.46
2019-02-24T17:01:32.834Z,96272.78
2019-02-24T17:04:06.519Z,96265.66
2019-02-24T17:06:39.726Z,96268.84
2019-02-24T17:09:30.061Z,96264.97
2019-02-24T17:12:06.164Z,96262.52
2019-02-24T17:14:41.518Z,96265.53
2019-02-24T17:17:15.158Z,96265.91
2019-02-24T17:19:48.275Z,96267.72
2019-02-24T17:22:21.719Z,96270.61
2019-02-24T17:24:56.938Z,96266.89
2019-02-24T17:27:30.688Z,96269.66
2019-02-24T17:30:04.854Z,96264.31
2019-02-24T17:32:38.434Z,96267.38
2019-02-24T17:35:11.829Z,96267.42
2019-02-24T17:37:45.369Z,96268.47
2019-02-24T17:40:19.706Z,96269.44
2019-02-24T17:42:53.572Z,96266.59
2019-02-24T17:45:27.816Z,96266.14
2019-02-24T17:48:02.375Z,96269.94
2019-02-24T17:50:37.207Z,96267.95
2019-02-24T17:53:13.518Z,96273.11
2019-02-24T17:55:47.191Z,96264.29
2019-02-24T17:58:20.756Z,96277.11
2019-02-24T18:01:00.626Z,96282.55
2019-02-24T18:03:39.516Z,96277.77
2019-02-24T18:06:13.471Z,96278.16
2019-02-24T18:08:47.145Z,96283.08
2019-02-24T18:11:20.627Z,96281.97
2019-02-24T18:13:55.059Z,96284.52
2019-02-24T18:16:28.914Z,96291.86
2019-02-24T18:19:02.123Z,96292.08
2019-02-24T18:21:38.846Z,96289.11
2019-02-24T18:24:12.441Z,96286.91
2019-02-24T18:26:45.685Z,96283.92
2019-02-24T18:29:19.048Z,96285.44
2019-02-24T18:31:53.573Z,96292.52
2019-02-24T18:34:28.451Z,96284.72
2019-02-24T18:37:01.753Z,96290.02
2019-02-24T18:39:36.383Z,96288.82
2019-02-24T18:42:33.333Z,96286.52
2019-02-24T18:45:07.091Z,96289.64
2019-02-24T18:47:40.044Z,96294.03
2019-02-24T18:50:13.941Z,96293.32
2019-02-24T18:52:47.295Z,96298.13
2019-02-24T18:55:20.649Z,96291.45
2019-02-24T18:57:56.600Z,96293.68
2019-02-24T19:00:30.323Z,96293.66
2019-02-24T19:03:03.607Z,96292.98
2019-02-24T19:05:38.850Z,96303.47
2019-02-24T19:08:15.287Z,96298.98
2019-02-24T19:10:48.523Z,96302.11
2019-02-24T19:13:21.723Z,96302.73
2019-02-24T19:15:54.671Z,96303.98
2019-02-24T19:18:27.987Z,96304.20
2019-02-24T19:21:01.029Z,96301.84
2019-02-24T19:23:34.212Z,96304.22
2019-02-24T19:26:09.923Z,96301.50
2019-02-24T19:28:43.106Z,96302.90
2019-02-24T19:31:16.481Z,96298.95
2019-02-24T19:33:49.948Z,96303.73
2019-02-24T19:36:26.692Z,96306.96
2019-02-24T19:38:59.908Z,96309.53
2019-02-24T19:41:32.988Z,96306.23
2019-02-24T19:44:06.239Z,96300.05
2019-02-24T19:46:39.499Z,96302.52
2019-02-24T19:49:13.570Z,96297.39
2019-02-24T19:51:47.149Z,96294.38
2019-02-24T19:54:21.199Z,96290.53
2019-02-24T19:56:54.539Z,96281.41
2019-02-24T19:59:28.398Z,96284.25
2019-02-24T20:02:02.847Z,96286.83
2019-02-24T20:04:36.255Z,96280.58
2019-02-24T20:07:09.276Z,96288.90
2019-02-24T20:09:42.615Z,96285.02
2019-02-24T20:12:21.502Z,96284.52
2019-02-24T20:14:54.724Z,96285.02
2019-02-24T20:17:28.359Z,96281.97
2019-02-24T20:20:01.621Z,96280.49
2019-02-24T20:22:34.824Z,96278.30
2019-02-24T20:25:10.012Z,96277.09
2019-02-24T20:27:43.036Z,96284.91
2019-02-24T20:30:26.681Z,96281.92
2019-02-24T20:32:59.975Z,96289.00
2019-02-24T20:35:33.278Z,96292.26
2019-02-24T20:38:07.879Z,96287.25
2019-02-24T20:40:41.351Z,96284.56
2019-02-24T20:43:16.080Z,96285.85
2019-02-24T20:45:55.600Z,96281.05
2019-02-24T20:48:42.350Z,96286.50
2019-02-24T20:51:33.917Z,96289.20
2019-02-24T20:54:21.979Z,96288.63
2019-02-24T20:57:05.738Z,96286.59
2019-02-24T20:59:52.444Z,96287.59
2019-02-24T21:02:40.421Z,96279.03
2019-02-24T21:05:21.952Z,96277.20
2019-02-24T21:08:09.000Z,96273.66
2019-02-24T21:11:08.051Z,96275.24
2019-02-24T21:14:01.870Z,96272.87
2019-02-24T21:16:45.535Z,96274.87
2019-02-24T21:19:27.567Z,96267.67
2019-02-24T21:22:17.900Z,96267.45
2019-02-24T21:24:58.561Z,96273.80
2019-02-24T21:27:45.274Z,96272.22
2019-02-24T21:30:32.593Z,96274.89
2019-02-24T21:33:12.207Z,96269.13
2019-02-24T21:36:04.729Z,96265.87
2019-02-24T21:38:45.344Z,96267.80
2019-02-24T21:41:31.418Z,96275.02
2019-02-24T21:44:17.170Z,96277.27
2019-02-24T21:47:17.456Z,96273.32
2019-02-24T21:50:14.135Z,96271.03
2019-02-24T21:53:00.519Z,96279.06
2019-02-24T21:55:44.550Z,96277.39
2019-02-24T21:58:45.246Z,96278.78
2019-02-24T22:01:34.437Z,96281.91
2019-02-24T22:04:45.136Z,96285.09
2019-02-24T22:07:27.288Z,96286.05
2019-02-24T22:10:11.377Z,96294.27
2019-02-24T22:12:59.595Z,96296.49
2019-02-24T22:15:43.203Z,96287.08
2019-02-24T22:18:33.930Z,96282.23
2019-02-24T22:21:23.882Z,96286.05
2019-02-24T22:24:04.064Z,96293.20
2019-02-24T22:26:39.278Z,96281.05
2019-02-24T22:29:17.467Z,96288.50
2019-02-24T22:31:56.661Z,96290.07
2019-02-24T22:34:31.343Z,96284.21
2019-02-24T22:37:09.246Z,96291.38
2019-02-24T22:39:44.252Z,96288.84
2019-02-24T22:42:27.707Z,96283.05
2019-02-24T22:45:06.028Z,96288.84
2019-02-24T22:47:44.231Z,96280.97
2019-02-24T22:50:19.341Z,96285.57
2019-02-24T22:52:54.142Z,96282.88
2019-02-24T22:55:29.070Z,96283.93
2019-02-24T22:58:03.851Z,96285.38
2019-02-24T23:00:58.034Z,96282.40
2019-02-24T23:03:42.120Z,96287.59
2019-02-24T23:06:20.069Z,96290.27
2019-02-24T23:08:58.179Z,96292.14
2019-02-24T23:11:33.704Z,96286.88
2019-02-24T23:14:08.525Z,96294.88
2019-02-24T23:16:43.044Z,96290.28
2019-02-24T23:19:21.546Z,96290.72
2019-02-24T23:21:56.686Z,96283.66
2019-02-24T23:24:33.001Z,96278.59
2019-02-24T23:27:11.394Z,96278.00
2019-02-24T23:29:46.438Z,96281.73
2019-02-24T23:32:27.884Z,96282.70
2019-02-24T23:35:02.589Z,96285.27
2019-02-24T23:37:37.400Z,96291.91
2019-02-24T23:40:13.482Z,96289.58
2019-02-24T23:42:49.231Z,96286.84
2019-02-24T23:45:24.292Z,96290.09
2019-02-24T23:48:02.941Z,96290.73
2019-02-24T23:50:41.115Z,96286.94
2019-02-24T23:53:18.135Z,96286.17
2019-02-24T23:55:52.654Z,96285.30
2019-02-24T23:58:27.851Z,96283.34
